Time;durP1;ratioP1;P1;durP2;ratioP2;P2;SDS_P1;SDS_P2;PMS_P1;PMS_P2;Temp;Humidity;BMP_temperature;BMP_pressure;BME280_temperature;BME280_humidity;BME280_pressure;Samples;Min_cycle;Max_cycle;Signal;HPM_P1;HPM_P2
2023/03/14 00:01:13;;;;;;;18.30;4.25;;;14.50;93.20;;;;;;5110846;28;20455;-67
2023/03/14 00:03:39;;;;;;;17.60;4.55;;;14.30;95.20;;;;;;5108370;28;20172;-63
2023/03/14 00:06:05;;;;;;;19.00;4.15;;;14.20;95.10;;;;;;5085640;28;20506;-62
2023/03/14 00:08:31;;;;;;;18.92;3.95;;;14.90;95.30;;;;;;5090644;28;20410;-61
2023/03/14 00:11:00;;;;;;;14.57;4.00;;;14.60;95.30;;;;;;5093123;28;20048;-61
2023/03/14 00:13:25;;;;;;;17.73;4.28;;;14.60;95.40;;;;;;5077398;28;20170;-65
2023/03/14 00:15:51;;;;;;;14.18;4.18;;;14.60;95.00;;;;;;5072677;28;20521;-64
2023/03/14 00:18:19;;;;;;;17.33;4.03;;;;;;;;;;5064922;28;20207;-64
2023/03/14 00:20:46;;;;;;;14.90;3.70;;;;;;;;;;5076901;28;20051;-61
2023/03/14 00:23:12;;;;;;;15.68;3.85;;;;;;;;;;5092251;28;20067;-62
2023/03/14 00:25:37;;;;;;;14.80;4.50;;;14.40;95.00;;;;;;5091465;28;20105;-61
2023/03/14 00:28:03;;;;;;;17.33;4.25;;;14.40;95.00;;;;;;5092613;28;20036;-61
2023/03/14 00:30:30;;;;;;;14.13;3.90;;;;;;;;;;5075475;28;20444;-62
2023/03/14 00:32:56;;;;;;;16.42;4.10;;;;;;;;;;5092441;28;20051;-61
2023/03/14 00:35:22;;;;;;;20.15;4.78;;;;;;;;;;5092338;28;20523;-63
2023/03/14 00:37:48;;;;;;;15.38;4.65;;;14.40;94.90;;;;;;5091222;28;20127;-61
2023/03/14 00:40:13;;;;;;;17.02;4.15;;;14.50;95.00;;;;;;5092884;28;20122;-62
2023/03/14 00:42:39;;;;;;;15.77;4.30;;;;;;;;;;5092073;28;20501;-61
2023/03/14 00:45:07;;;;;;;13.45;4.20;;;14.40;95.00;;;;;;5092831;28;20044;-61
2023/03/14 00:47:33;;;;;;;17.75;3.80;;;14.30;94.90;;;;;;5075889;28;20044;-61
2023/03/14 00:49:59;;;;;;;14.95;3.33;;;14.40;94.90;;;;;;5071076;28;20498;-61
2023/03/14 00:52:24;;;;;;;11.73;3.33;;;14.20;94.90;;;;;;5082217;28;20040;-61
2023/03/14 00:54:50;;;;;;;14.38;4.38;;;14.60;94.90;;;;;;5092558;28;20040;-61
2023/03/14 00:57:16;;;;;;;14.23;3.80;;;14.40;94.90;;;;;;5092410;28;20086;-61
2023/03/14 00:59:42;;;;;;;16.23;4.10;;;14.30;94.90;;;;;;5092547;28;20087;-61
2023/03/14 01:02:07;;;;;;;13.40;3.70;;;14.40;94.90;;;;;;5092024;28;20123;-63
2023/03/14 01:04:34;;;;;;;17.05;4.40;;;14.30;94.50;;;;;;5078163;28;20048;-62
2023/03/14 01:07:00;;;;;;;15.85;4.15;;;14.40;94.90;;;;;;5092330;28;20051;-61
2023/03/14 01:09:26;;;;;;;14.43;4.07;;;14.20;94.90;;;;;;5092555;28;20040;-64
2023/03/14 01:11:51;;;;;;;18.13;3.90;;;14.30;94.90;;;;;;5098215;28;20406;-65
2023/03/14 01:14:17;;;;;;;15.75;3.72;;;14.40;94.90;;;;;;5112094;28;20144;-66
2023/03/14 01:16:43;;;;;;;21.27;4.30;;;14.20;94.90;;;;;;5112705;28;20085;-66
2023/03/14 01:19:09;;;;;;;17.20;4.60;;;14.30;93.20;;;;;;5112900;28;20118;-65
2023/03/14 01:21:35;;;;;;;12.23;3.40;;;14.40;94.90;;;;;;5111811;28;20044;-61
2023/03/14 01:24:01;;;;;;;16.88;3.67;;;;;;;;;;5112474;28;20036;-64
2023/03/14 01:26:29;;;;;;;14.60;3.53;;;14.30;93.40;;;;;;5112741;28;20126;-65
2023/03/14 01:28:55;;;;;;;18.65;4.40;;;14.30;94.80;;;;;;5111573;28;20075;-64
2023/03/14 01:31:21;;;;;;;13.57;3.38;;;14.60;94.90;;;;;;5094521;28;20086;-61
2023/03/14 01:33:46;;;;;;;13.70;3.75;;;14.20;94.80;;;;;;5112162;28;20039;-61
2023/03/14 01:36:12;;;;;;;13.25;3.30;;;14.10;94.50;;;;;;5112291;28;20039;-61
2023/03/14 01:38:39;;;;;;;13.88;3.50;;;14.60;94.90;;;;;;5094682;28;20048;-61
2023/03/14 01:41:06;;;;;;;16.52;4.10;;;14.60;94.80;;;;;;5092240;28;20064;-62
2023/03/14 01:43:32;;;;;;;14.82;3.80;;;;;;;;;;5092262;28;20040;-61
2023/03/14 01:46:08;;;;;;;13.85;3.60;;;14.40;93.10;;;;;;5114668;28;20051;-61
2023/03/14 01:48:55;;;;;;;13.90;3.78;;;14.50;93.10;;;;;;5115931;28;20051;-61
2023/03/14 01:51:31;;;;;;;10.75;3.33;;;14.40;93.10;;;;;;5115776;28;20055;-62
2023/03/14 01:54:00;;;;;;;15.25;3.95;;;;;;;;;;5112413;28;20501;-62
2023/03/14 01:56:26;;;;;;;17.63;4.00;;;14.50;95.00;;;;;;5112554;28;20489;-62
2023/03/14 01:58:52;;;;;;;13.75;3.55;;;14.40;95.00;;;;;;5114486;28;20096;-62
2023/03/14 02:01:19;;;;;;;14.05;3.65;;;14.60;95.00;;;;;;5114725;28;20067;-62
2023/03/14 02:03:51;;;;;;;15.13;3.63;;;;;;;;;;5105159;28;20044;-61
2023/03/14 02:06:18;;;;;;;9.50;3.75;;;;;;;;;;5097770;28;20051;-61
2023/03/14 02:08:48;;;;;;;11.35;3.22;;;14.50;95.00;;;;;;5114444;28;20048;-63
2023/03/14 02:11:14;;;;;;;13.20;3.83;;;;;;;;;;5109515;28;20122;-62
2023/03/14 02:13:40;;;;;;;15.15;3.72;;;14.60;95.10;;;;;;5095066;28;20481;-61
2023/03/14 02:16:06;;;;;;;12.25;4.30;;;14.20;94.90;;;;;;5084293;28;20097;-63
2023/03/14 02:18:32;;;;;;;11.25;3.60;;;14.70;95.00;;;;;;5065145;28;20122;-61
2023/03/14 02:21:05;;;;;;;12.73;3.38;;;14.40;94.90;;;;;;5093104;28;20127;-61
2023/03/14 02:23:44;;;;;;;10.40;3.15;;;14.40;93.80;;;;;;5096540;28;20507;-63
2023/03/14 02:26:17;;;;;;;10.65;3.00;;;14.60;93.70;;;;;;5113817;28;20130;-62
2023/03/14 02:28:43;;;;;;;16.40;3.60;;;14.20;95.10;;;;;;5053826;28;20048;-61
2023/03/14 02:31:09;;;;;;;12.60;3.20;;;14.40;95.00;;;;;;5107952;28;20035;-61
2023/03/14 02:33:35;;;;;;;11.07;3.13;;;14.60;93.50;;;;;;5112852;28;20500;-62
2023/03/14 02:36:08;;;;;;;10.07;2.72;;;;;;;;;;5103717;28;20496;-61
2023/03/14 02:38:42;;;;;;;11.82;2.70;;;;;;;;;;5112718;28;20504;-61
2023/03/14 02:41:08;;;;;;;11.30;3.72;;;14.50;95.10;;;;;;5114248;28;20047;-61
2023/03/14 02:43:33;;;;;;;9.20;2.50;;;14.50;95.10;;;;;;5113924;28;20397;-61
2023/03/14 02:46:00;;;;;;;13.50;3.30;;;14.60;95.00;;;;;;5107363;28;20107;-61
2023/03/14 02:48:35;;;;;;;11.25;2.83;;;14.40;93.00;;;;;;5083457;28;20431;-65
2023/03/14 02:51:01;;;;;;;7.82;2.88;;;14.30;95.00;;;;;;5112865;28;20118;-62
2023/03/14 02:53:32;;;;;;;9.35;2.53;;;14.20;95.00;;;;;;5079533;28;20424;-62
2023/03/14 02:55:58;;;;;;;10.77;2.63;;;14.60;94.90;;;;;;5113776;28;20495;-63
2023/03/14 02:58:25;;;;;;;9.65;2.80;;;14.80;95.10;;;;;;5114347;28;20087;-62
2023/03/14 03:00:50;;;;;;;9.35;2.33;;;14.50;95.10;;;;;;5114468;28;20059;-61
2023/03/14 03:03:16;;;;;;;9.52;2.65;;;14.60;95.10;;;;;;5101654;28;20048;-61
2023/03/14 03:05:43;;;;;;;11.30;2.78;;;14.40;95.00;;;;;;5109684;28;20056;-62
2023/03/14 03:08:09;;;;;;;9.70;3.22;;;14.60;95.10;;;;;;5093939;28;20094;-62
2023/03/14 03:10:35;;;;;;;6.30;2.15;;;14.90;95.20;;;;;;5094142;28;20601;-62
2023/03/14 03:13:01;;;;;;;9.18;2.80;;;;;;;;;;5093881;28;20470;-62
2023/03/14 03:15:27;;;;;;;10.02;2.45;;;14.70;95.10;;;;;;5094174;28;20128;-61
2023/03/14 03:17:53;;;;;;;10.57;2.60;;;;;;;;;;5094187;28;20032;-62
2023/03/14 03:20:19;;;;;;;10.32;2.70;;;;;;;;;;5079032;28;20401;-66
2023/03/14 03:22:45;;;;;;;7.22;2.13;;;14.20;95.00;;;;;;5073801;28;20123;-62
2023/03/14 03:25:11;;;;;;;9.10;2.55;;;14.50;95.10;;;;;;5073728;28;20094;-68
2023/03/14 03:27:37;;;;;;;7.93;2.53;;;14.20;95.00;;;;;;5082850;28;20042;-67
2023/03/14 03:30:04;;;;;;;6.18;1.98;;;14.50;95.10;;;;;;5093108;28;20507;-66
2023/03/14 03:32:30;;;;;;;6.97;2.38;;;14.60;94.50;;;;;;5093915;28;20054;-63
2023/03/14 03:34:56;;;;;;;9.85;2.70;;;14.50;95.10;;;;;;5093467;28;20513;-62
2023/03/14 03:37:21;;;;;;;8.90;2.55;;;14.60;95.10;;;;;;5082169;28;20039;-61
2023/03/14 03:39:48;;;;;;;8.73;2.22;;;;;;;;;;5093507;28;20056;-61
2023/03/14 03:42:14;;;;;;;8.88;2.42;;;;;;;;;;5093661;28;20075;-61
2023/03/14 03:44:39;;;;;;;7.55;2.25;;;14.20;95.00;;;;;;5093514;28;20048;-61
2023/03/14 03:47:05;;;;;;;8.05;2.85;;;;;;;;;;5093310;28;20405;-64
2023/03/14 03:49:32;;;;;;;8.68;2.47;;;14.50;95.00;;;;;;5092149;28;20067;-61
2023/03/14 03:51:58;;;;;;;10.27;2.63;;;14.30;95.00;;;;;;5093082;28;20052;-61
2023/03/14 03:54:24;;;;;;;12.68;2.90;;;14.60;95.10;;;;;;5077967;28;20073;-64
2023/03/14 03:56:50;;;;;;;8.30;2.58;;;14.50;95.10;;;;;;5073207;28;20124;-62
2023/03/14 03:59:16;;;;;;;8.35;2.70;;;;;;;;;;5073046;28;20071;-61
2023/03/14 04:01:42;;;;;;;8.43;2.55;;;14.50;95.10;;;;;;5079105;28;20039;-61
2023/03/14 04:04:07;;;;;;;9.68;3.03;;;14.80;95.20;;;;;;5092627;28;20047;-66
2023/03/14 04:06:33;;;;;;;9.98;2.67;;;;;;;;;;5110011;28;20582;-62
2023/03/14 04:08:59;;;;;;;11.40;2.95;;;14.80;95.30;;;;;;5113352;28;20054;-62
2023/03/14 04:11:25;;;;;;;10.00;3.17;;;14.50;95.20;;;;;;5081097;28;20398;-61
2023/03/14 04:13:51;;;;;;;8.07;2.63;;;;;;;;;;5072984;28;20048;-63
2023/03/14 04:16:21;;;;;;;9.70;3.42;;;;;;;;;;5093999;28;20451;-61
2023/03/14 04:18:47;;;;;;;9.00;2.65;;;14.50;94.80;;;;;;5107155;28;20059;-62
2023/03/14 04:21:13;;;;;;;10.73;2.78;;;14.60;95.30;;;;;;5093143;28;20067;-64
2023/03/14 04:23:39;;;;;;;10.40;2.97;;;14.80;95.40;;;;;;5092761;28;20075;-62
2023/03/14 04:26:05;;;;;;;8.77;2.70;;;14.50;95.30;;;;;;5092743;28;20040;-61
2023/03/14 04:28:30;;;;;;;9.20;2.70;;;14.70;95.40;;;;;;5087143;28;20032;-61
2023/03/14 04:30:57;;;;;;;8.43;3.17;;;;;;;;;;5093032;28;20450;-62
2023/03/14 04:33:23;;;;;;;9.13;2.58;;;;;;;;;;5092612;28;20131;-63
2023/03/14 04:35:50;;;;;;;9.70;2.47;;;;;;;;;;5091053;28;20055;-64
2023/03/14 04:38:15;;;;;;;8.55;2.85;;;14.50;95.30;;;;;;5092601;28;20056;-61
2023/03/14 04:40:41;;;;;;;10.10;2.75;;;14.60;95.30;;;;;;5095599;28;20108;-61
2023/03/14 04:43:09;;;;;;;8.32;3.03;;;;;;;;;;5100365;28;20068;-65
2023/03/14 04:45:35;;;;;;;9.95;3.15;;;14.50;95.30;;;;;;5085156;28;20056;-62
2023/03/14 04:48:01;;;;;;;10.13;3.17;;;;;;;;;;5091466;28;20040;-61
2023/03/14 04:50:27;;;;;;;14.80;3.05;;;14.60;95.40;;;;;;5091829;28;20048;-61
2023/03/14 04:52:52;;;;;;;7.95;2.33;;;14.40;95.30;;;;;;5091834;28;20032;-62
2023/03/14 04:55:19;;;;;;;8.52;2.72;;;;;;;;;;5098155;28;20686;-63
2023/03/14 04:57:44;;;;;;;6.78;2.33;;;14.30;95.30;;;;;;5092478;28;20405;-62
2023/03/14 05:00:10;;;;;;;7.30;2.80;;;14.40;95.40;;;;;;5091594;28;20036;-63
2023/03/14 05:02:36;;;;;;;7.60;2.50;;;14.70;95.40;;;;;;5083392;28;20048;-61
2023/03/14 05:05:02;;;;;;;9.40;2.95;;;14.60;95.40;;;;;;5093139;28;20040;-66
2023/03/14 05:07:28;;;;;;;7.20;2.60;;;14.60;95.40;;;;;;5108317;28;20138;-66
2023/03/14 05:09:54;;;;;;;9.63;2.88;;;;;;;;;;5110510;28;20047;-65
2023/03/14 05:12:20;;;;;;;6.38;2.42;;;14.60;95.40;;;;;;5112441;28;20044;-62
2023/03/14 05:14:46;;;;;;;7.03;2.50;;;14.60;95.50;;;;;;5111871;28;20032;-61
2023/03/14 05:17:14;;;;;;;6.38;2.35;;;14.60;95.50;;;;;;5110668;28;20035;-62
2023/03/14 05:19:40;;;;;;;7.18;2.58;;;14.30;94.40;;;;;;5109056;28;20083;-61
2023/03/14 05:22:06;;;;;;;7.50;2.53;;;;;;;;;;5115707;28;20031;-62
2023/03/14 05:24:32;;;;;;;6.53;2.15;;;14.60;95.50;;;;;;5097200;28;20138;-61
2023/03/14 05:26:58;;;;;;;7.97;2.80;;;14.60;95.50;;;;;;5114392;28;20119;-62
2023/03/14 05:29:24;;;;;;;11.30;2.60;;;;;;;;;;5115381;28;20396;-66
2023/03/14 05:31:50;;;;;;;8.38;2.80;;;;;;;;;;5104483;28;20524;-66
2023/03/14 05:34:16;;;;;;;8.82;2.78;;;14.50;95.60;;;;;;5116230;28;20039;-66
2023/03/14 05:36:42;;;;;;;8.43;2.35;;;14.30;95.00;;;;;;5098021;28;20055;-67
2023/03/14 05:39:07;;;;;;;8.35;2.60;;;14.50;95.60;;;;;;5094553;28;20100;-66
2023/03/14 05:41:33;;;;;;;8.00;2.80;;;14.90;95.70;;;;;;5096223;28;20079;-66
2023/03/14 05:43:59;;;;;;;7.45;2.20;;;14.60;95.60;;;;;;5115468;28;20058;-67
2023/03/14 05:46:25;;;;;;;8.93;2.40;;;;;;;;;;5116353;28;20543;-67
2023/03/14 05:48:51;;;;;;;8.10;2.45;;;14.60;95.50;;;;;;5116261;28;20082;-67
2023/03/14 05:51:17;;;;;;;7.05;2.40;;;;;;;;;;5115885;28;20473;-68
2023/03/14 05:53:43;;;;;;;7.25;2.30;;;14.50;95.70;;;;;;5097904;28;20491;-66
2023/03/14 05:56:09;;;;;;;7.70;2.35;;;14.20;95.60;;;;;;5114665;28;20138;-66
2023/03/14 05:58:34;;;;;;;7.70;2.58;;;14.50;95.70;;;;;;5116008;28;20083;-68
2023/03/14 06:01:05;;;;;;;5.95;2.28;;;14.60;93.70;;;;;;5115576;28;20126;-66
2023/03/14 06:03:31;;;;;;;11.07;2.67;;;14.30;95.70;;;;;;5097976;28;20051;-67
2023/03/14 06:05:57;;;;;;;5.90;2.10;;;14.50;95.60;;;;;;5115742;28;20074;-66
2023/03/14 06:08:23;;;;;;;7.45;2.30;;;14.60;95.80;;;;;;5114844;28;20411;-67
2023/03/14 06:10:49;;;;;;;5.50;2.42;;;14.90;95.90;;;;;;5096658;28;20048;-67
2023/03/14 06:13:15;;;;;;;7.25;2.20;;;14.50;95.80;;;;;;5095431;28;20115;-61
2023/03/14 06:15:41;;;;;;;7.72;2.67;;;14.50;95.80;;;;;;5094189;28;20051;-61
2023/03/14 06:18:07;;;;;;;7.95;2.70;;;;;;;;;;5102892;28;20100;-62
2023/03/14 06:20:35;;;;;;;6.82;2.47;;;;;;;;;;5114259;28;20046;-64
2023/03/14 06:23:00;;;;;;;7.28;2.58;;;14.50;95.80;;;;;;5115684;28;20439;-61
2023/03/14 06:25:26;;;;;;;6.70;2.53;;;14.50;95.90;;;;;;5115602;28;20043;-61
2023/03/14 06:27:52;;;;;;;9.13;2.97;;;14.50;95.90;;;;;;5095344;28;20139;-61
2023/03/14 06:30:18;;;;;;;9.15;2.60;;;;;;;;;;5104027;28;20052;-66
2023/03/14 06:32:44;;;;;;;7.68;2.30;;;;;;;;;;5108908;28;20042;-61
2023/03/14 06:35:10;;;;;;;9.70;2.72;;;;;;;;;;5110499;28;20069;-61
2023/03/14 06:37:39;;;;;;;7.70;2.42;;;14.60;95.20;;;;;;5113463;28;20392;-62
2023/03/14 06:40:07;;;;;;;7.00;2.40;;;14.60;95.90;;;;;;5112545;28;20043;-62
2023/03/14 06:42:33;;;;;;;7.68;2.47;;;14.50;95.80;;;;;;5113405;28;20420;-62
2023/03/14 06:44:58;;;;;;;7.13;2.53;;;14.60;95.50;;;;;;5113534;28;20091;-68
2023/03/14 06:47:24;;;;;;;5.30;2.00;;;14.40;95.80;;;;;;5114449;28;20040;-63
2023/03/14 06:49:50;;;;;;;5.10;2.30;;;;;;;;;;5114805;28;20047;-60
2023/03/14 06:52:16;;;;;;;6.35;2.30;;;14.70;95.90;;;;;;5114877;28;20055;-62
2023/03/14 06:54:42;;;;;;;6.15;2.30;;;14.60;95.90;;;;;;5114605;28;20401;-65
2023/03/14 06:57:08;;;;;;;6.32;2.63;;;14.60;95.90;;;;;;5095802;28;20075;-62
2023/03/14 06:59:34;;;;;;;6.88;2.30;;;;;;;;;;5114417;28;20051;-63
2023/03/14 07:02:00;;;;;;;6.05;2.13;;;14.40;95.70;;;;;;5094123;28;20051;-62
2023/03/14 07:04:27;;;;;;;6.30;2.38;;;;;;;;;;5094473;28;20452;-64
2023/03/14 07:06:53;;;;;;;7.10;2.15;;;14.80;95.70;;;;;;5101835;28;20047;-62
2023/03/14 07:09:19;;;;;;;6.40;2.28;;;14.90;95.70;;;;;;5113566;28;20043;-67
2023/03/14 07:11:45;;;;;;;6.28;2.10;;;;;;;;;;5114119;28;20047;-66
2023/03/14 07:14:11;;;;;;;7.40;2.30;;;;;;;;;;5114227;28;20135;-67
2023/03/14 07:16:37;;;;;;;5.72;2.00;;;15.00;95.60;;;;;;5113978;28;20047;-66
2023/03/14 07:19:02;;;;;;;5.65;1.70;;;15.00;95.50;;;;;;5095343;28;20046;-66
2023/03/14 07:21:29;;;;;;;8.70;2.10;;;;;;;;;;5111356;28;20044;-66
2023/03/14 07:23:55;;;;;;;6.75;1.73;;;;;;;;;;5111233;28;20040;-68
2023/03/14 07:26:20;;;;;;;5.93;1.90;;;14.90;95.00;;;;;;5104457;28;20048;-62
2023/03/14 07:28:46;;;;;;;8.10;2.00;;;14.90;95.10;;;;;;5112643;28;20524;-66
2023/03/14 07:31:12;;;;;;;9.35;1.73;;;14.90;95.00;;;;;;5111171;28;20040;-69
2023/03/14 07:33:38;;;;;;;6.22;1.83;;;;;;;;;;5111536;28;20549;-67
2023/03/14 07:36:04;;;;;;;8.43;2.03;;;;;;;;;;5108044;28;20122;-66
2023/03/14 07:38:31;;;;;;;12.60;2.78;;;;;;;;;;5106021;28;20050;-69
2023/03/14 07:41:04;;;;;;;7.05;2.10;;;14.60;93.50;;;;;;5106151;28;20044;-68
2023/03/14 07:43:30;;;;;;;7.45;1.65;;;14.00;94.60;;;;;;5110560;28;20101;-66
2023/03/14 07:45:56;;;;;;;8.75;1.70;;;;;;;;;;5112662;28;20048;-70
2023/03/14 07:48:24;;;;;;;6.65;1.67;;;14.40;94.50;;;;;;5109257;28;20044;-67
2023/03/14 07:50:51;;;;;;;10.73;2.35;;;14.30;94.50;;;;;;5110084;28;20117;-68
2023/03/14 07:53:17;;;;;;;8.98;1.77;;;;;;;;;;5108515;28;20458;-66
2023/03/14 07:55:42;;;;;;;6.15;1.55;;;14.10;94.40;;;;;;5112734;28;20090;-66
2023/03/14 07:58:08;;;;;;;8.32;1.55;;;13.70;94.20;;;;;;5111092;28;20067;-65
2023/03/14 08:00:34;;;;;;;7.78;1.27;;;14.00;94.30;;;;;;5111588;28;20074;-66
2023/03/14 08:03:00;;;;;;;6.13;1.30;;;14.00;94.30;;;;;;5110559;28;20040;-66
2023/03/14 08:05:26;;;;;;;3.60;1.00;;;14.00;94.20;;;;;;5111442;28;20047;-66
2023/03/14 08:07:52;;;;;;;4.55;1.08;;;;;;;;;;5109487;28;20116;-66
2023/03/14 08:10:21;;;;;;;4.18;0.93;;;13.90;94.10;;;;;;5106239;28;20467;-66
2023/03/14 08:12:49;;;;;;;5.82;0.85;;;13.90;93.60;;;;;;5109928;28;20056;-66
2023/03/14 08:15:15;;;;;;;3.70;0.88;;;13.70;93.90;;;;;;5111044;28;20058;-65
2023/03/14 08:17:40;;;;;;;4.22;0.85;;;13.90;94.00;;;;;;5111924;28;20039;-65
2023/03/14 08:20:07;;;;;;;5.55;1.58;;;13.80;93.90;;;;;;5111166;28;20302;-66
2023/03/14 08:22:33;;;;;;;3.75;1.00;;;13.40;93.70;;;;;;5112121;28;20051;-66
2023/03/14 08:24:59;;;;;;;3.65;0.82;;;13.70;93.70;;;;;;5108228;28;20040;-65
2023/03/14 08:27:25;;;;;;;2.85;0.75;;;13.80;93.80;;;;;;5112401;28;20204;-66
2023/03/14 08:29:51;;;;;;;4.38;0.98;;;;;;;;;;5109176;28;20036;-66
2023/03/14 08:32:17;;;;;;;4.80;1.65;;;14.10;93.80;;;;;;5105511;28;20082;-65
2023/03/14 08:34:43;;;;;;;4.43;1.02;;;;;;;;;;5106715;28;20047;-73
2023/03/14 08:37:09;;;;;;;3.42;0.40;;;;;;;;;;5102247;28;20043;-65
2023/03/14 08:39:35;;;;;;;4.93;0.80;;;13.90;93.70;;;;;;5111625;28;20036;-61
2023/03/14 08:42:00;;;;;;;4.88;1.02;;;13.90;93.60;;;;;;5107567;28;20047;-61
2023/03/14 08:44:26;;;;;;;3.88;0.77;;;13.60;93.50;;;;;;5106416;28;20044;-60
2023/03/14 08:46:52;;;;;;;5.25;1.10;;;13.90;93.50;;;;;;5111119;28;20046;-61
2023/03/14 08:49:18;;;;;;;4.65;1.02;;;;;;;;;;5109826;28;20035;-60
2023/03/14 08:51:44;;;;;;;3.17;0.70;;;13.80;93.00;;;;;;5110822;28;20047;-62
2023/03/14 08:54:11;;;;;;;4.93;1.20;;;;;;;;;;5114321;28;20043;-62
2023/03/14 08:56:37;;;;;;;5.40;1.10;;;13.70;93.30;;;;;;5114174;28;20123;-64
2023/03/14 08:59:04;;;;;;;4.95;1.13;;;;;;;;;;5093748;28;20048;-65
2023/03/14 09:01:30;;;;;;;6.75;1.08;;;13.90;93.30;;;;;;5117213;28;20427;-66
2023/03/14 09:03:55;;;;;;;2.92;0.75;;;14.10;93.20;;;;;;5114067;28;20038;-66
2023/03/14 09:06:21;;;;;;;5.63;1.02;;;13.50;93.00;;;;;;5107943;28;20047;-63
2023/03/14 09:08:47;;;;;;;4.30;0.82;;;14.10;93.10;;;;;;5113497;28;20054;-66
2023/03/14 09:11:13;;;;;;;2.17;0.63;;;14.00;93.10;;;;;;5098068;28;20143;-66
2023/03/14 09:13:39;;;;;;;4.18;1.17;;;14.10;93.10;;;;;;5115156;28;20039;-66
2023/03/14 09:16:05;;;;;;;3.67;0.60;;;14.10;91.30;;;;;;5093223;28;20379;-72
2023/03/14 09:18:31;;;;;;;6.18;1.10;;;14.00;93.00;;;;;;5111155;28;20134;-71
2023/03/14 09:20:57;;;;;;;4.32;0.85;;;14.00;93.00;;;;;;5114478;28;20126;-74
2023/03/14 09:23:22;;;;;;;5.50;1.00;;;13.80;92.90;;;;;;5115577;28;20043;-66
2023/03/14 09:25:48;;;;;;;6.25;1.52;;;13.90;92.90;;;;;;5113772;28;20051;-69
2023/03/14 09:28:14;;;;;;;9.60;1.40;;;14.20;93.00;;;;;;5114358;28;20040;-62
2023/03/14 09:30:41;;;;;;;6.35;1.17;;;;;;;;;;5115074;28;20539;-65
2023/03/14 09:33:06;;;;;;;6.45;1.30;;;14.20;92.90;;;;;;5110551;28;20437;-65
2023/03/14 09:35:34;;;;;;;4.63;1.10;;;13.80;92.80;;;;;;5108748;28;20043;-66
2023/03/14 09:38:00;;;;;;;9.52;1.70;;;;;;;;;;5113986;28;20378;-66
2023/03/14 09:40:30;;;;;;;7.32;1.33;;;14.30;91.40;;;;;;5114508;28;20047;-66
2023/03/14 09:42:56;;;;;;;8.57;1.70;;;14.10;91.60;;;;;;5097178;28;20047;-66
2023/03/14 09:45:26;;;;;;;7.22;1.40;;;;;;;;;;5078261;28;20066;-67
2023/03/14 09:47:53;;;;;;;7.15;1.70;;;14.30;92.60;;;;;;5096091;28;20127;-66
2023/03/14 09:50:19;;;;;;;9.52;1.73;;;14.10;92.50;;;;;;5090104;28;20052;-66
2023/03/14 09:52:46;;;;;;;5.38;1.40;;;14.50;92.60;;;;;;5110732;28;20038;-66
2023/03/14 09:55:15;;;;;;;6.60;1.65;;;14.20;91.10;;;;;;5113775;28;20438;-66
2023/03/14 09:57:41;;;;;;;10.70;2.05;;;;;;;;;;5080317;28;20508;-66
2023/03/14 10:00:14;;;;;;;10.00;1.88;;;;;;;;;;5112193;28;20054;-65
2023/03/14 10:02:40;;;;;;;9.73;1.95;;;14.40;92.40;;;;;;5098386;28;20074;-67
2023/03/14 10:05:14;;;;;;;8.30;1.50;;;14.60;91.00;;;;;;5096284;28;20507;-66
2023/03/14 10:07:40;;;;;;;8.88;1.77;;;14.50;92.30;;;;;;5109413;28;20050;-66
2023/03/14 10:10:11;;;;;;;10.73;2.08;;;14.70;91.00;;;;;;5113562;28;20047;-66
2023/03/14 10:12:41;;;;;;;8.00;1.92;;;;;;;;;;5080179;28;20128;-60
2023/03/14 10:15:11;;;;;;;8.45;1.90;;;14.70;90.70;;;;;;5110144;28;20575;-64
2023/03/14 10:17:42;;;;;;;11.25;2.55;;;14.80;90.10;;;;;;5101620;28;20114;-62
2023/03/14 10:20:36;;;;;;;8.38;2.00;;;14.70;90.80;;;;;;5109999;28;20151;-62
2023/03/14 10:23:03;;;;;;;8.32;2.03;;;14.80;90.60;;;;;;5093990;28;20116;-66
2023/03/14 10:25:33;;;;;;;8.05;2.47;;;;;;;;;;5093049;28;20043;-68
2023/03/14 10:27:59;;;;;;;11.30;2.22;;;;;;;;;;5112170;28;20039;-67
2023/03/14 10:30:44;;;;;;;11.98;2.03;;;14.90;90.60;;;;;;5082675;28;20713;-66
2023/03/14 10:33:31;;;;;;;10.98;2.38;;;14.70;90.50;;;;;;5111612;28;20513;-66
2023/03/14 10:36:15;;;;;;;11.20;2.38;;;14.60;90.30;;;;;;5113141;28;20066;-62
2023/03/14 10:38:40;;;;;;;12.95;2.70;;;14.70;91.70;;;;;;5080011;28;20031;-63
2023/03/14 10:41:25;;;;;;;8.65;1.95;;;14.80;89.60;;;;;;5111417;28;20554;-61
2023/03/14 10:43:52;;;;;;;14.48;2.65;;;;;;;;;;5114153;28;20126;-67
2023/03/14 10:46:18;;;;;;;11.93;2.58;;;14.60;91.60;;;;;;5094992;28;20549;-61
2023/03/14 10:48:45;;;;;;;13.73;2.55;;;;;;;;;;5113677;28;20130;-66
2023/03/14 10:51:11;;;;;;;12.38;2.72;;;14.90;91.50;;;;;;5112387;28;20184;-67
2023/03/14 10:53:40;;;;;;;10.77;2.25;;;;;;;;;;5113717;28;20134;-66
2023/03/14 10:56:06;;;;;;;11.07;2.55;;;14.90;91.60;;;;;;5112486;28;20255;-66
2023/03/14 10:58:40;;;;;;;11.20;2.20;;;;;;;;;;5105217;28;20165;-65
2023/03/14 11:01:27;;;;;;;8.73;2.53;;;14.80;91.30;;;;;;5112766;28;20065;-67
2023/03/14 11:04:21;;;;;;;10.63;2.03;;;14.80;88.90;;;;;;5112735;28;20362;-60
2023/03/14 11:06:46;;;;;;;;;;;14.80;90.00;;;;;;5113366;28;20100;-60
2023/03/14 11:09:34;;;;;;;11.00;2.65;;;14.90;89.90;;;;;;5114117;28;20377;-63
2023/03/14 11:12:14;;;;;;;11.35;2.55;;;;;;;;;;5098716;28;20043;-66
2023/03/14 11:14:43;;;;;;;9.32;2.45;;;15.00;89.40;;;;;;5111496;28;20082;-62
2023/03/14 11:17:21;;;;;;;8.43;2.30;;;14.80;88.90;;;;;;5091650;28;20126;-64
2023/03/14 11:19:57;;;;;;;9.25;2.10;;;15.40;89.10;;;;;;5092687;28;20054;-61
2023/03/14 11:22:39;;;;;;;10.98;2.30;;;15.00;87.60;;;;;;5094220;28;20461;-60
2023/03/14 11:25:30;;;;;;;10.85;2.20;;;15.10;87.60;;;;;;5109581;28;20121;-67
2023/03/14 11:28:36;;;;;;;9.60;2.00;;;15.30;87.70;;;;;;5070452;28;20052;-61
2023/03/14 11:31:29;;;;;;;8.23;1.88;;;;;;;;;;5093853;28;20047;-60
2023/03/14 11:34:16;;;;;;;6.78;1.85;;;15.40;88.80;;;;;;5110064;28;20100;-62
2023/03/14 11:36:55;;;;;;;8.88;2.22;;;15.50;90.50;;;;;;5113751;28;20039;-61
2023/03/14 11:39:22;;;;;;;10.45;2.20;;;;;;;;;;5083939;28;20130;-64
2023/03/14 11:41:51;;;;;;;9.85;2.05;;;15.70;88.30;;;;;;5113757;28;20552;-66
2023/03/14 11:44:37;;;;;;;8.23;1.80;;;;;;;;;;5113763;28;20071;-67
2023/03/14 11:47:09;;;;;;;6.18;1.50;;;15.80;90.50;;;;;;5114074;28;20051;-65
2023/03/14 11:49:56;;;;;;;7.57;1.92;;;15.70;86.60;;;;;;5081948;28;20048;-60
2023/03/14 11:52:27;;;;;;;6.07;1.50;;;15.90;88.50;;;;;;5075465;28;20051;-71
2023/03/14 11:54:58;;;;;;;7.90;1.98;;;15.80;88.00;;;;;;5093417;28;20052;-60
2023/03/14 11:57:24;;;;;;;6.38;1.48;;;;;;;;;;5075124;28;20052;-69
2023/03/14 12:00:22;;;;;;;7.03;1.88;;;15.90;86.80;;;;;;5100835;28;20096;-71
2023/03/14 12:03:06;;;;;;;9.63;2.28;;;15.70;88.10;;;;;;5095515;28;20100;-63
2023/03/14 12:05:40;;;;;;;11.57;1.60;;;;;;;;;;5111723;28;20053;-70
2023/03/14 12:08:08;;;;;;;6.47;2.28;;;15.80;86.70;;;;;;5093269;28;20120;-60
2023/03/14 12:11:09;;;;;;;5.68;1.38;;;15.70;87.90;;;;;;5092991;28;20043;-64
2023/03/14 12:13:37;;;;;;;6.15;1.48;;;15.80;90.30;;;;;;5029894;28;20152;-61
2023/03/14 12:16:22;;;;;;;5.57;1.55;;;15.90;88.10;;;;;;5014078;28;20053;-65
2023/03/14 12:18:48;;;;;;;6.90;1.70;;;;;;;;;;5015682;28;20613;-66
2023/03/14 12:21:14;;;;;;;6.18;1.58;;;15.90;90.40;;;;;;5030562;28;20107;-60
2023/03/14 12:23:50;;;;;;;7.22;1.67;;;15.70;86.50;;;;;;5029775;28;20085;-62
2023/03/14 12:26:17;;;;;;;6.28;1.45;;;15.80;90.20;;;;;;5030448;28;20508;-64
2023/03/14 12:28:49;;;;;;;7.18;1.35;;;15.90;87.30;;;;;;5030062;28;20095;-69
2023/03/14 12:31:30;;;;;;;4.40;1.40;;;;;;;;;;5030357;28;20062;-65
2023/03/14 12:34:10;;;;;;;6.72;1.80;;;15.70;90.10;;;;;;5029972;28;20045;-71
2023/03/14 12:36:49;;;;;;;4.97;1.52;;;15.80;85.90;;;;;;5029829;28;20265;-72
2023/03/14 12:39:34;;;;;;;7.38;1.70;;;;;;;;;;5030354;28;20045;-71
2023/03/14 12:42:15;;;;;;;5.22;1.60;;;15.80;89.90;;;;;;5015832;28;20041;-63
2023/03/14 12:44:43;;;;;;;6.57;1.70;;;15.80;87.50;;;;;;5030147;28;20048;-63
2023/03/14 12:47:18;;;;;;;6.07;1.70;;;15.80;86.40;;;;;;5030151;28;20128;-64
2023/03/14 12:49:48;;;;;;;7.18;1.30;;;15.90;90.20;;;;;;5056503;28;20048;-65
2023/03/14 12:52:15;;;;;;;9.85;1.80;;;;;;;;;;5074764;28;20048;-63
2023/03/14 12:54:47;;;;;;;5.75;1.52;;;15.80;87.50;;;;;;5093287;28;20040;-71
2023/03/14 12:57:16;;;;;;;9.43;1.65;;;;;;;;;;5086123;28;20043;-62
2023/03/14 13:00:16;;;;;;;7.15;1.65;;;15.70;90.20;;;;;;5085901;28;20044;-61
2023/03/14 13:02:43;;;;;;;9.18;1.60;;;;;;;;;;5097783;28;20047;-64
2023/03/14 13:05:10;;;;;;;7.85;1.50;;;;;;;;;;5103800;28;20047;-64
2023/03/14 13:07:39;;;;;;;9.77;1.70;;;15.90;90.20;;;;;;5111300;28;20059;-64
2023/03/14 13:10:05;;;;;;;8.35;1.80;;;15.80;87.00;;;;;;5112106;28;20043;-63
2023/03/14 13:12:46;;;;;;;10.27;2.00;;;16.00;87.50;;;;;;5112607;28;20043;-64
2023/03/14 13:15:30;;;;;;;10.43;1.58;;;15.90;87.40;;;;;;5098782;28;20048;-65
2023/03/14 13:18:01;;;;;;;8.25;1.30;;;15.70;87.30;;;;;;5092244;28;20044;-62
2023/03/14 13:20:30;;;;;;;5.72;1.38;;;15.90;90.10;;;;;;5096053;28;20048;-61